Pauls Store, Texas
Current Conditions -  °F | °C
As of 9:35 AM on Saturday 22 Nov 2014 (Local Time) from KOCH Reporting Station
Clear Clear  
Wind Chill: 61°   Ceiling: Unl
Heat Index: 61°   Visibility: 10mi
Dew Point: 54°   Wind: 14mph
Humidity: 77%   Direction: 130°SE
Pressure: 30.12"   Gusts: NA
Location:  31.7022°N, 93.9592°W
Report Text: KOCH 221535Z AUTO 13012KT 10SM CLR 16/12 A3012 RMK AO1
Loading
Personal Weather Stations






























Interactive Weather Map New forecast layout! Learn more

10-Day Weather Forecast

Advertisements
Track Severe Weather on mobile